Shelby County Airport
KEET : now visible

Airfield :











YOU CAN JOIN US ON...

 
LOGIN :

Register | Disclaimer

   EN    FR    IT 

 









Legend :    VFR   Marginal VFR   IFR   Intensive IFR   Very Intensive IFR
Visi :
Ceiling :
>= 8 km
>= 3000ft
5 to 8 km
1000 to 3000 ft
1500m to 5 km
500 to 1000 ft
800 to 1500m
200 to 500 ft
< 800m
< 200 ft
Symbols :   Thunderstorms  Fog  Heavy snow  Heavy precipitations  Wind > 20 kt






- Airport Elevation : 586 ft


KEET - Shelby County

CURRENT METAR :
  • 121553Z AUTO VRB03KT 10SM SCT013 OVC025 17/13 A3015 RMK AO2 SLP206 T01670128

EXPIRED METARs :
  • 121453Z AUTO VRB05KT 10SM OVC022 15/12 A3014 RMK AO2 RAE1357 SLP204 P0000 60000 T01500122 53008
  • 121445Z AUTO VRB05KT 10SM FEW010 OVC022 15/13 A3015 RMK AO2 RAE1357 P0000 T01500128
  • 121429Z AUTO 02005KT 10SM BKN010 OVC022 15/13 A3014 RMK AO2 RAE1357 CIG 007V013 P0000 T01500128
  • 121400Z AUTO VRB03KT 3SM BR BKN008 OVC020 15/13 A3013 RMK AO2 RAE1357 P0000 T01500133
  • 121351Z AUTO VRB05KT 2 1/2SM -RA BR BKN008 BKN012 OVC019 14/13 A3013 RMK AO2 RAB41 SLP198 P0000 T01440128

TAF KEET
Valid from the 12 at 16:00 until the 13 at 12:00 UTC


121533Z 1216/1312 01004KT P6SM VCSH OVC020
FM122000 01006KT P6SM OVC022
FM130200 01006KT P6SM OVC045
FM130500 VRB02KT P6SM BKN090
KZTL FIR / North America



MET'MAP, your aeronautical weather chart ! - Copyright ORBIFLY December 2007 - Disclaimer

ORBIFLY MET'MAP TEAM :

Programming & Development : Alexandra Zaïnal
Concept & original design : Baudouin d'Aumeries
Assistance for programming : Marc-Olivier Méhu
Technical & hardware support : Manuel Goepfert

Contact : metmap@orbifly.com




SOURCES & CREDITS :

   NOAA       Earth
Advisory